sensor_id;sensor_type;location;lat;lon;timestamp;P1;durP1;ratioP1;P2;durP2;ratioP2
45388;SDS011;31127;52.078;4.370;2022-09-13T00:04:20;7.97;;;6.67;;
45388;SDS011;31127;52.078;4.370;2022-09-13T00:09:22;12.40;;;7.57;;
45388;SDS011;31127;52.078;4.370;2022-09-13T00:14:24;10.60;;;8.40;;
45388;SDS011;31127;52.078;4.370;2022-09-13T00:19:27;9.07;;;7.45;;
45388;SDS011;31127;52.078;4.370;2022-09-13T00:24:36;16.58;;;7.90;;
45388;SDS011;31127;52.078;4.370;2022-09-13T00:29:38;11.13;;;7.57;;
45388;SDS011;31127;52.078;4.370;2022-09-13T00:34:40;9.93;;;8.73;;
45388;SDS011;31127;52.078;4.370;2022-09-13T00:40:02;12.50;;;8.55;;
45388;SDS011;31127;52.078;4.370;2022-09-13T00:50:10;13.32;;;9.07;;
45388;SDS011;31127;52.078;4.370;2022-09-13T00:55:17;12.32;;;8.45;;
45388;SDS011;31127;52.078;4.370;2022-09-13T01:00:20;12.82;;;8.70;;
45388;SDS011;31127;52.078;4.370;2022-09-13T01:05:24;9.90;;;7.47;;
45388;SDS011;31127;52.078;4.370;2022-09-13T01:10:27;10.25;;;7.97;;
45388;SDS011;31127;52.078;4.370;2022-09-13T01:15:32;11.32;;;7.75;;
45388;SDS011;31127;52.078;4.370;2022-09-13T01:31:16;11.63;;;7.78;;
45388;SDS011;31127;52.078;4.370;2022-09-13T01:46:51;10.60;;;7.50;;
45388;SDS011;31127;52.078;4.370;2022-09-13T01:51:58;10.82;;;7.80;;
45388;SDS011;31127;52.078;4.370;2022-09-13T02:02:18;9.23;;;8.13;;
45388;SDS011;31127;52.078;4.370;2022-09-13T02:07:23;9.90;;;7.95;;
45388;SDS011;31127;52.078;4.370;2022-09-13T02:12:27;9.82;;;7.57;;
45388;SDS011;31127;52.078;4.370;2022-09-13T02:17:33;11.18;;;7.75;;
45388;SDS011;31127;52.078;4.370;2022-09-13T02:22:38;9.23;;;8.07;;
45388;SDS011;31127;52.078;4.370;2022-09-13T02:27:44;15.02;;;7.43;;
45388;SDS011;31127;52.078;4.370;2022-09-13T02:32:48;12.65;;;8.05;;
45388;SDS011;31127;52.078;4.370;2022-09-13T02:38:01;10.20;;;7.97;;
45388;SDS011;31127;52.078;4.370;2022-09-13T02:43:04;10.90;;;7.55;;
45388;SDS011;31127;52.078;4.370;2022-09-13T02:48:18;10.50;;;7.97;;
45388;SDS011;31127;52.078;4.370;2022-09-13T02:58:27;10.57;;;7.80;;
45388;SDS011;31127;52.078;4.370;2022-09-13T03:03:34;10.55;;;8.55;;
45388;SDS011;31127;52.078;4.370;2022-09-13T03:08:36;11.07;;;8.10;;
45388;SDS011;31127;52.078;4.370;2022-09-13T03:13:49;12.43;;;7.77;;
45388;SDS011;31127;52.078;4.370;2022-09-13T03:24:27;10.45;;;8.05;;
45388;SDS011;31127;52.078;4.370;2022-09-13T03:29:39;11.93;;;9.32;;
45388;SDS011;31127;52.078;4.370;2022-09-13T03:34:51;13.52;;;9.80;;
45388;SDS011;31127;52.078;4.370;2022-09-13T03:45:05;14.30;;;9.50;;
45388;SDS011;31127;52.078;4.370;2022-09-13T03:50:07;10.43;;;8.60;;
45388;SDS011;31127;52.078;4.370;2022-09-13T03:55:10;15.63;;;10.02;;
45388;SDS011;31127;52.078;4.370;2022-09-13T04:00:12;17.07;;;9.60;;
45388;SDS011;31127;52.078;4.370;2022-09-13T04:05:34;15.93;;;10.02;;
45388;SDS011;31127;52.078;4.370;2022-09-13T04:10:36;19.00;;;15.40;;
45388;SDS011;31127;52.078;4.370;2022-09-13T04:15:38;18.50;;;13.93;;
45388;SDS011;31127;52.078;4.370;2022-09-13T04:20:40;18.83;;;14.13;;
45388;SDS011;31127;52.078;4.370;2022-09-13T04:25:42;21.73;;;13.93;;
45388;SDS011;31127;52.078;4.370;2022-09-13T04:30:45;18.33;;;12.43;;
45388;SDS011;31127;52.078;4.370;2022-09-13T04:35:46;19.10;;;13.10;;
45388;SDS011;31127;52.078;4.370;2022-09-13T04:40:54;19.60;;;13.80;;
45388;SDS011;31127;52.078;4.370;2022-09-13T04:45:59;16.42;;;14.27;;
45388;SDS011;31127;52.078;4.370;2022-09-13T04:51:02;12.93;;;10.70;;
45388;SDS011;31127;52.078;4.370;2022-09-13T05:01:07;12.30;;;9.90;;
45388;SDS011;31127;52.078;4.370;2022-09-13T05:06:11;14.93;;;9.63;;
45388;SDS011;31127;52.078;4.370;2022-09-13T05:11:12;15.38;;;9.82;;
45388;SDS011;31127;52.078;4.370;2022-09-13T05:16:14;10.13;;;7.23;;
45388;SDS011;31127;52.078;4.370;2022-09-13T05:21:17;10.13;;;7.67;;
45388;SDS011;31127;52.078;4.370;2022-09-13T05:26:19;10.70;;;7.87;;
45388;SDS011;31127;52.078;4.370;2022-09-13T05:31:23;11.73;;;7.78;;
45388;SDS011;31127;52.078;4.370;2022-09-13T05:36:26;8.45;;;6.85;;
45388;SDS011;31127;52.078;4.370;2022-09-13T05:41:27;10.63;;;6.83;;
45388;SDS011;31127;52.078;4.370;2022-09-13T05:46:29;9.23;;;6.37;;
45388;SDS011;31127;52.078;4.370;2022-09-13T05:51:32;8.37;;;5.57;;
45388;SDS011;31127;52.078;4.370;2022-09-13T05:56:33;6.40;;;4.82;;
45388;SDS011;31127;52.078;4.370;2022-09-13T06:01:44;4.70;;;3.53;;
45388;SDS011;31127;52.078;4.370;2022-09-13T06:06:59;4.10;;;2.95;;
45388;SDS011;31127;52.078;4.370;2022-09-13T06:12:21;3.70;;;2.50;;
45388;SDS011;31127;52.078;4.370;2022-09-13T06:17:24;5.63;;;3.40;;
45388;SDS011;31127;52.078;4.370;2022-09-13T06:22:26;4.43;;;2.20;;
45388;SDS011;31127;52.078;4.370;2022-09-13T06:27:34;6.22;;;2.35;;
45388;SDS011;31127;52.078;4.370;2022-09-13T06:32:36;3.57;;;2.30;;
45388;SDS011;31127;52.078;4.370;2022-09-13T06:37:38;5.80;;;2.17;;
45388;SDS011;31127;52.078;4.370;2022-09-13T06:42:40;5.43;;;2.30;;
45388;SDS011;31127;52.078;4.370;2022-09-13T06:47:42;5.70;;;2.27;;
45388;SDS011;31127;52.078;4.370;2022-09-13T06:52:44;7.40;;;2.17;;
45388;SDS011;31127;52.078;4.370;2022-09-13T06:57:46;8.73;;;2.30;;
45388;SDS011;31127;52.078;4.370;2022-09-13T07:02:51;8.90;;;2.10;;
45388;SDS011;31127;52.078;4.370;2022-09-13T07:07:53;4.75;;;1.70;;
45388;SDS011;31127;52.078;4.370;2022-09-13T07:12:55;3.50;;;1.70;;
45388;SDS011;31127;52.078;4.370;2022-09-13T07:17:57;3.67;;;2.10;;
45388;SDS011;31127;52.078;4.370;2022-09-13T07:22:59;4.00;;;1.90;;
45388;SDS011;31127;52.078;4.370;2022-09-13T07:28:01;5.40;;;1.80;;
45388;SDS011;31127;52.078;4.370;2022-09-13T07:33:03;4.57;;;1.48;;
45388;SDS011;31127;52.078;4.370;2022-09-13T07:38:25;3.25;;;1.48;;
45388;SDS011;31127;52.078;4.370;2022-09-13T07:43:27;5.17;;;1.40;;
45388;SDS011;31127;52.078;4.370;2022-09-13T07:48:29;2.07;;;1.30;;
45388;SDS011;31127;52.078;4.370;2022-09-13T07:53:31;3.42;;;1.20;;
45388;SDS011;31127;52.078;4.370;2022-09-13T07:58:35;3.63;;;1.50;;
45388;SDS011;31127;52.078;4.370;2022-09-13T08:03:37;5.22;;;1.65;;
45388;SDS011;31127;52.078;4.370;2022-09-13T08:08:39;6.13;;;1.93;;
45388;SDS011;31127;52.078;4.370;2022-09-13T08:13:41;3.97;;;1.48;;
45388;SDS011;31127;52.078;4.370;2022-09-13T08:18:44;5.80;;;1.43;;
45388;SDS011;31127;52.078;4.370;2022-09-13T08:23:48;3.78;;;1.50;;
45388;SDS011;31127;52.078;4.370;2022-09-13T08:28:53;7.30;;;1.40;;
45388;SDS011;31127;52.078;4.370;2022-09-13T08:33:56;4.18;;;1.30;;
45388;SDS011;31127;52.078;4.370;2022-09-13T08:38:59;15.18;;;9.05;;
45388;SDS011;31127;52.078;4.370;2022-09-13T08:44:09;4.40;;;2.00;;
45388;SDS011;31127;52.078;4.370;2022-09-13T08:54:20;10.65;;;2.33;;
45388;SDS011;31127;52.078;4.370;2022-09-13T08:59:28;6.25;;;1.20;;
45388;SDS011;31127;52.078;4.370;2022-09-13T09:10:02;4.90;;;1.50;;
45388;SDS011;31127;52.078;4.370;2022-09-13T09:20:17;6.63;;;1.90;;
45388;SDS011;31127;52.078;4.370;2022-09-13T09:25:22;7.22;;;1.40;;
45388;SDS011;31127;52.078;4.370;2022-09-13T09:30:33;8.13;;;1.50;;
45388;SDS011;31127;52.078;4.370;2022-09-13T09:35:42;5.63;;;1.42;;
45388;SDS011;31127;52.078;4.370;2022-09-13T09:40:46;5.65;;;1.45;;
45388;SDS011;31127;52.078;4.370;2022-09-13T09:45:48;6.88;;;2.13;;
45388;SDS011;31127;52.078;4.370;2022-09-13T09:50:52;7.13;;;1.80;;
45388;SDS011;31127;52.078;4.370;2022-09-13T09:55:59;5.50;;;1.42;;
45388;SDS011;31127;52.078;4.370;2022-09-13T10:01:03;3.53;;;1.33;;
45388;SDS011;31127;52.078;4.370;2022-09-13T10:06:08;3.72;;;1.40;;
45388;SDS011;31127;52.078;4.370;2022-09-13T10:11:11;7.95;;;1.30;;
45388;SDS011;31127;52.078;4.370;2022-09-13T10:16:26;4.63;;;1.40;;
45388;SDS011;31127;52.078;4.370;2022-09-13T10:21:33;3.75;;;1.58;;
45388;SDS011;31127;52.078;4.370;2022-09-13T10:26:36;5.68;;;1.23;;
45388;SDS011;31127;52.078;4.370;2022-09-13T10:31:39;3.70;;;1.50;;
45388;SDS011;31127;52.078;4.370;2022-09-13T10:36:52;3.97;;;1.20;;
45388;SDS011;31127;52.078;4.370;2022-09-13T10:47:05;6.60;;;1.70;;
45388;SDS011;31127;52.078;4.370;2022-09-13T10:52:22;5.88;;;1.58;;
45388;SDS011;31127;52.078;4.370;2022-09-13T10:57:28;3.95;;;1.30;;
45388;SDS011;31127;52.078;4.370;2022-09-13T11:02:53;3.65;;;1.30;;
45388;SDS011;31127;52.078;4.370;2022-09-13T11:13:06;4.40;;;1.90;;
45388;SDS011;31127;52.078;4.370;2022-09-13T11:29:02;3.65;;;1.35;;
45388;SDS011;31127;52.078;4.370;2022-09-13T11:39:19;4.97;;;1.58;;
45388;SDS011;31127;52.078;4.370;2022-09-13T11:49:29;4.60;;;1.63;;
45388;SDS011;31127;52.078;4.370;2022-09-13T11:54:41;2.90;;;1.48;;
45388;SDS011;31127;52.078;4.370;2022-09-13T11:59:48;3.70;;;1.23;;
45388;SDS011;31127;52.078;4.370;2022-09-13T12:05:02;4.00;;;1.13;;
45388;SDS011;31127;52.078;4.370;2022-09-13T12:10:22;3.92;;;1.70;;
45388;SDS011;31127;52.078;4.370;2022-09-13T12:20:32;4.38;;;1.60;;
45388;SDS011;31127;52.078;4.370;2022-09-13T12:25:38;4.63;;;1.42;;
45388;SDS011;31127;52.078;4.370;2022-09-13T12:30:47;3.03;;;1.73;;
45388;SDS011;31127;52.078;4.370;2022-09-13T12:35:58;10.43;;;2.65;;
45388;SDS011;31127;52.078;4.370;2022-09-13T12:46:48;3.20;;;1.30;;
45388;SDS011;31127;52.078;4.370;2022-09-13T13:02:00;6.53;;;1.45;;
45388;SDS011;31127;52.078;4.370;2022-09-13T13:07:04;4.32;;;1.50;;
45388;SDS011;31127;52.078;4.370;2022-09-13T13:12:52;3.33;;;1.30;;
45388;SDS011;31127;52.078;4.370;2022-09-13T13:17:36;2.92;;;1.65;;
45388;SDS011;31127;52.078;4.370;2022-09-13T13:27:41;3.83;;;1.80;;
45388;SDS011;31127;52.078;4.370;2022-09-13T13:38:13;6.85;;;1.83;;
45388;SDS011;31127;52.078;4.370;2022-09-13T13:48:34;3.08;;;0.98;;
45388;SDS011;31127;52.078;4.370;2022-09-13T13:53:36;5.22;;;1.75;;
45388;SDS011;31127;52.078;4.370;2022-09-13T14:03:48;3.20;;;1.02;;
45388;SDS011;31127;52.078;4.370;2022-09-13T14:09:11;2.83;;;1.20;;
45388;SDS011;31127;52.078;4.370;2022-09-13T14:24:50;3.70;;;1.15;;
45388;SDS011;31127;52.078;4.370;2022-09-13T14:29:53;5.40;;;1.70;;
45388;SDS011;31127;52.078;4.370;2022-09-13T14:35:01;5.35;;;1.42;;
45388;SDS011;31127;52.078;4.370;2022-09-13T14:40:19;6.40;;;1.48;;
45388;SDS011;31127;52.078;4.370;2022-09-13T14:45:27;2.83;;;1.23;;
45388;SDS011;31127;52.078;4.370;2022-09-13T14:50:32;4.68;;;1.08;;
45388;SDS011;31127;52.078;4.370;2022-09-13T14:55:36;6.88;;;1.38;;
45388;SDS011;31127;52.078;4.370;2022-09-13T15:00:44;3.10;;;1.05;;
45388;SDS011;31127;52.078;4.370;2022-09-13T15:05:57;8.20;;;1.60;;
45388;SDS011;31127;52.078;4.370;2022-09-13T15:11:01;4.45;;;1.27;;
45388;SDS011;31127;52.078;4.370;2022-09-13T15:16:22;4.32;;;1.13;;
45388;SDS011;31127;52.078;4.370;2022-09-13T15:26:27;9.40;;;1.33;;
45388;SDS011;31127;52.078;4.370;2022-09-13T15:31:33;5.40;;;1.25;;
45388;SDS011;31127;52.078;4.370;2022-09-13T15:41:40;7.03;;;1.23;;
45388;SDS011;31127;52.078;4.370;2022-09-13T15:46:55;5.40;;;1.15;;
45388;SDS011;31127;52.078;4.370;2022-09-13T15:51:58;7.93;;;2.00;;
45388;SDS011;31127;52.078;4.370;2022-09-13T15:57:00;7.80;;;1.92;;
45388;SDS011;31127;52.078;4.370;2022-09-13T16:07:24;5.30;;;1.40;;
45388;SDS011;31127;52.078;4.370;2022-09-13T16:12:26;6.15;;;2.15;;
45388;SDS011;31127;52.078;4.370;2022-09-13T16:17:28;4.32;;;1.35;;
45388;SDS011;31127;52.078;4.370;2022-09-13T16:22:30;4.00;;;1.40;;
45388;SDS011;31127;52.078;4.370;2022-09-13T16:27:32;6.93;;;2.63;;
45388;SDS011;31127;52.078;4.370;2022-09-13T16:32:34;5.00;;;1.70;;
45388;SDS011;31127;52.078;4.370;2022-09-13T16:37:37;5.57;;;2.08;;
45388;SDS011;31127;52.078;4.370;2022-09-13T16:42:40;6.05;;;2.00;;
45388;SDS011;31127;52.078;4.370;2022-09-13T16:47:42;5.43;;;1.92;;
45388;SDS011;31127;52.078;4.370;2022-09-13T16:52:44;8.18;;;2.00;;
45388;SDS011;31127;52.078;4.370;2022-09-13T16:57:46;9.15;;;5.03;;
45388;SDS011;31127;52.078;4.370;2022-09-13T17:02:50;7.68;;;2.40;;
45388;SDS011;31127;52.078;4.370;2022-09-13T17:07:52;6.82;;;2.30;;
45388;SDS011;31127;52.078;4.370;2022-09-13T17:12:54;4.97;;;1.05;;
45388;SDS011;31127;52.078;4.370;2022-09-13T17:17:56;7.95;;;1.75;;
45388;SDS011;31127;52.078;4.370;2022-09-13T17:22:58;7.25;;;1.58;;
45388;SDS011;31127;52.078;4.370;2022-09-13T17:28:00;6.70;;;1.70;;
45388;SDS011;31127;52.078;4.370;2022-09-13T17:33:02;7.13;;;1.77;;
45388;SDS011;31127;52.078;4.370;2022-09-13T17:38:06;8.18;;;1.60;;
45388;SDS011;31127;52.078;4.370;2022-09-13T17:43:08;6.27;;;1.60;;
45388;SDS011;31127;52.078;4.370;2022-09-13T17:48:10;8.37;;;1.77;;
45388;SDS011;31127;52.078;4.370;2022-09-13T17:53:36;7.90;;;1.67;;
45388;SDS011;31127;52.078;4.370;2022-09-13T17:58:38;8.73;;;1.38;;
45388;SDS011;31127;52.078;4.370;2022-09-13T18:03:41;6.83;;;1.70;;
45388;SDS011;31127;52.078;4.370;2022-09-13T18:08:42;9.20;;;2.07;;
45388;SDS011;31127;52.078;4.370;2022-09-13T18:13:45;10.20;;;1.77;;
45388;SDS011;31127;52.078;4.370;2022-09-13T18:18:46;10.77;;;2.13;;
45388;SDS011;31127;52.078;4.370;2022-09-13T18:23:50;6.67;;;2.20;;
45388;SDS011;31127;52.078;4.370;2022-09-13T18:28:53;6.25;;;1.40;;
45388;SDS011;31127;52.078;4.370;2022-09-13T18:34:02;10.25;;;1.65;;
45388;SDS011;31127;52.078;4.370;2022-09-13T18:39:04;9.40;;;2.00;;
45388;SDS011;31127;52.078;4.370;2022-09-13T18:44:17;12.43;;;2.25;;
45388;SDS011;31127;52.078;4.370;2022-09-13T18:49:20;9.77;;;2.20;;
45388;SDS011;31127;52.078;4.370;2022-09-13T18:54:22;16.30;;;2.57;;
45388;SDS011;31127;52.078;4.370;2022-09-13T18:59:32;8.25;;;2.05;;
45388;SDS011;31127;52.078;4.370;2022-09-13T19:04:34;7.53;;;1.90;;
45388;SDS011;31127;52.078;4.370;2022-09-13T19:09:38;6.97;;;2.05;;
45388;SDS011;31127;52.078;4.370;2022-09-13T19:14:44;10.02;;;2.30;;
45388;SDS011;31127;52.078;4.370;2022-09-13T19:19:46;8.27;;;2.03;;
45388;SDS011;31127;52.078;4.370;2022-09-13T19:24:48;7.87;;;2.20;;
45388;SDS011;31127;52.078;4.370;2022-09-13T19:29:52;11.25;;;2.28;;
45388;SDS011;31127;52.078;4.370;2022-09-13T19:34:55;11.20;;;2.42;;
45388;SDS011;31127;52.078;4.370;2022-09-13T19:39:57;10.80;;;2.35;;
45388;SDS011;31127;52.078;4.370;2022-09-13T19:44:59;12.30;;;1.97;;
45388;SDS011;31127;52.078;4.370;2022-09-13T19:50:01;12.77;;;2.13;;
45388;SDS011;31127;52.078;4.370;2022-09-13T19:55:23;7.50;;;1.70;;
45388;SDS011;31127;52.078;4.370;2022-09-13T20:00:25;12.33;;;2.83;;
45388;SDS011;31127;52.078;4.370;2022-09-13T20:05:27;5.88;;;1.77;;
45388;SDS011;31127;52.078;4.370;2022-09-13T20:10:29;13.47;;;2.20;;
45388;SDS011;31127;52.078;4.370;2022-09-13T20:20:34;9.82;;;1.85;;
45388;SDS011;31127;52.078;4.370;2022-09-13T20:25:36;11.33;;;2.00;;
45388;SDS011;31127;52.078;4.370;2022-09-13T20:30:41;6.80;;;1.75;;
45388;SDS011;31127;52.078;4.370;2022-09-13T20:35:43;11.47;;;2.03;;
45388;SDS011;31127;52.078;4.370;2022-09-13T20:40:45;7.67;;;1.80;;
45388;SDS011;31127;52.078;4.370;2022-09-13T20:45:53;10.23;;;2.33;;
45388;SDS011;31127;52.078;4.370;2022-09-13T20:50:57;10.23;;;1.77;;
45388;SDS011;31127;52.078;4.370;2022-09-13T20:56:07;8.38;;;1.15;;
45388;SDS011;31127;52.078;4.370;2022-09-13T21:01:12;6.10;;;1.30;;
45388;SDS011;31127;52.078;4.370;2022-09-13T21:06:14;8.43;;;1.70;;
45388;SDS011;31127;52.078;4.370;2022-09-13T21:11:20;7.57;;;1.73;;
45388;SDS011;31127;52.078;4.370;2022-09-13T21:16:23;10.52;;;2.17;;
45388;SDS011;31127;52.078;4.370;2022-09-13T21:26:34;9.75;;;1.63;;
45388;SDS011;31127;52.078;4.370;2022-09-13T21:31:37;6.78;;;1.40;;
45388;SDS011;31127;52.078;4.370;2022-09-13T21:36:47;9.18;;;1.73;;
45388;SDS011;31127;52.078;4.370;2022-09-13T21:41:49;6.40;;;2.07;;
45388;SDS011;31127;52.078;4.370;2022-09-13T21:46:51;6.67;;;1.50;;
45388;SDS011;31127;52.078;4.370;2022-09-13T21:52:11;6.22;;;1.52;;
45388;SDS011;31127;52.078;4.370;2022-09-13T21:57:13;7.03;;;1.43;;
45388;SDS011;31127;52.078;4.370;2022-09-13T22:02:15;9.68;;;1.67;;
45388;SDS011;31127;52.078;4.370;2022-09-13T22:07:17;8.37;;;2.13;;
45388;SDS011;31127;52.078;4.370;2022-09-13T22:12:19;10.00;;;2.08;;
45388;SDS011;31127;52.078;4.370;2022-09-13T22:17:40;5.00;;;1.77;;
45388;SDS011;31127;52.078;4.370;2022-09-13T22:23:02;5.95;;;1.60;;
45388;SDS011;31127;52.078;4.370;2022-09-13T22:28:04;5.78;;;1.88;;
45388;SDS011;31127;52.078;4.370;2022-09-13T22:33:06;6.77;;;2.07;;
45388;SDS011;31127;52.078;4.370;2022-09-13T22:38:23;10.32;;;2.55;;
45388;SDS011;31127;52.078;4.370;2022-09-13T22:43:25;2.70;;;1.90;;
45388;SDS011;31127;52.078;4.370;2022-09-13T22:48:27;8.23;;;1.80;;
45388;SDS011;31127;52.078;4.370;2022-09-13T22:53:29;9.23;;;2.20;;
45388;SDS011;31127;52.078;4.370;2022-09-13T22:58:31;10.30;;;2.60;;
45388;SDS011;31127;52.078;4.370;2022-09-13T23:03:34;6.30;;;2.35;;
45388;SDS011;31127;52.078;4.370;2022-09-13T23:13:38;5.47;;;2.28;;
45388;SDS011;31127;52.078;4.370;2022-09-13T23:18:40;6.83;;;2.50;;
45388;SDS011;31127;52.078;4.370;2022-09-13T23:23:42;5.43;;;1.90;;
45388;SDS011;31127;52.078;4.370;2022-09-13T23:28:45;6.88;;;2.17;;
45388;SDS011;31127;52.078;4.370;2022-09-13T23:38:50;4.80;;;1.48;;
45388;SDS011;31127;52.078;4.370;2022-09-13T23:48:54;7.82;;;1.75;;
45388;SDS011;31127;52.078;4.370;2022-09-13T23:53:56;9.30;;;2.30;;
45388;SDS011;31127;52.078;4.370;2022-09-13T23:58:59;7.47;;;1.85;;
